Time;durP1;ratioP1;P1;durP2;ratioP2;P2;SDS_P1;SDS_P2;PMS_P1;PMS_P2;Temp;Humidity;BMP_temperature;BMP_pressure;BME280_temperature;BME280_humidity;BME280_pressure;Samples;Min_cycle;Max_cycle;Signal;HPM_P1;HPM_P2
2023/07/30 00:01:55;;;;;;;4.65;3.45;;;;;;;;;;5134836;27;20886;-64
2023/07/30 00:04:24;;;;;;;4.32;3.92;;;;;;;;;;5105800;28;20717;-64
2023/07/30 00:06:53;;;;;;;4.68;3.63;;;;;;;;;;5115280;28;20204;-64
2023/07/30 00:09:23;;;;;;;4.97;3.63;;;;;;;;;;5115202;28;20214;-63
2023/07/30 00:11:53;;;;;;;3.83;3.53;;;;;;;;;;5107972;27;20216;-63
2023/07/30 00:14:23;;;;;;;3.78;3.38;;;;;;;;;;5112354;27;20200;-63
2023/07/30 00:16:52;;;;;;;3.78;3.47;;;;;;;;;;5112688;28;20305;-65
2023/07/30 00:19:20;;;;;;;4.82;3.20;;;;;;;;;;5096417;28;20276;-64
2023/07/30 00:21:49;;;;;;;5.07;3.25;;;;;;;;;;5105739;28;20244;-63
2023/07/30 00:24:18;;;;;;;3.47;3.17;;;;;;;;;;5097639;28;20324;-63
2023/07/30 00:26:48;;;;;;;3.88;3.33;;;;;;;;;;5115849;27;20226;-63
2023/07/30 00:29:16;;;;;;;3.53;3.22;;;;;;;;;;5108111;28;20209;-67
2023/07/30 00:31:45;;;;;;;4.03;3.30;;;;;;;;;;5108370;28;20211;-65
2023/07/30 00:34:14;;;;;;;3.10;2.80;;;;;;;;;;5113939;27;20776;-63
2023/07/30 00:36:42;;;;;;;3.85;3.28;;;;;;;;;;5113353;28;20210;-62
2023/07/30 00:39:11;;;;;;;3.30;3.00;;;;;;;;;;5104703;28;20216;-66
2023/07/30 00:41:40;;;;;;;3.60;3.20;;;;;;;;;;5107524;27;20242;-62
2023/07/30 00:44:09;;;;;;;5.60;3.42;;;;;;;;;;5101350;28;20236;-63
2023/07/30 00:46:37;;;;;;;7.78;3.10;;;;;;;;;;5106399;28;20770;-64
2023/07/30 00:49:07;;;;;;;4.43;3.70;;;;;;;;;;5111722;28;20240;-64
2023/07/30 00:51:35;;;;;;;3.88;3.58;;;;;;;;;;5120372;27;20712;-63
2023/07/30 00:54:04;;;;;;;4.38;3.30;;;;;;;;;;5115672;28;20324;-64
2023/07/30 00:56:33;;;;;;;3.50;3.20;;;;;;;;;;5106711;28;20258;-63
2023/07/30 00:59:02;;;;;;;4.28;2.85;;;;;;;;;;5100938;28;20196;-64
2023/07/30 01:01:34;;;;;;;4.88;3.25;;;;;;;;;;5101160;28;20221;-63
2023/07/30 01:04:03;;;;;;;5.30;3.28;;;;;;;;;;5111121;28;21578;-63
2023/07/30 01:06:39;;;;;;;3.88;3.00;;;;;;;;;;5111986;28;20560;-63
2023/07/30 01:09:07;;;;;;;3.00;2.80;;;;;;;;;;5107642;28;20200;-63
2023/07/30 01:11:37;;;;;;;3.00;2.70;;;;;;;;;;5113899;28;20204;-64
2023/07/30 01:14:08;;;;;;;4.20;3.17;;;;;;;;;;5113130;28;20204;-64
2023/07/30 01:16:40;;;;;;;4.38;3.38;;;;;;;;;;5110412;28;20235;-67
2023/07/30 01:19:10;;;;;;;3.15;2.85;;;;;;;;;;5109224;28;20235;-64
2023/07/30 01:21:38;;;;;;;3.60;3.30;;;;;;;;;;5110953;27;20724;-63
2023/07/30 01:24:08;;;;;;;3.63;3.03;;;;;;;;;;5106381;28;20201;-63
2023/07/30 01:26:40;;;;;;;4.93;3.33;;;;;;;;;;5086707;28;20225;-64
2023/07/30 01:29:13;;;;;;;3.22;2.88;;;;;;;;;;5114920;27;20239;-63
2023/07/30 01:31:44;;;;;;;3.20;3.00;;;;;;;;;;5110634;27;20261;-63
2023/07/30 01:34:19;;;;;;;3.17;2.90;;;;;;;;;;5109862;28;20218;-63
2023/07/30 01:36:50;;;;;;;3.30;3.10;;;;;;;;;;5098849;27;20254;-63
2023/07/30 01:39:23;;;;;;;6.22;2.95;;;;;;;;;;5111765;28;20195;-68
2023/07/30 01:41:54;;;;;;;3.08;2.78;;;;;;;;;;5098957;28;20251;-63
2023/07/30 01:44:23;;;;;;;3.42;2.97;;;;;;;;;;5116010;27;20204;-63
2023/07/30 01:46:52;;;;;;;3.72;3.15;;;;;;;;;;5097014;28;20245;-63
2023/07/30 01:49:20;;;;;;;3.35;3.00;;;;;;;;;;5110796;28;20306;-66
2023/07/30 01:51:49;;;;;;;3.28;2.97;;;;;;;;;;5110976;27;20239;-63
2023/07/30 01:54:18;;;;;;;3.45;2.90;;;;;;;;;;5102749;27;20213;-64
2023/07/30 01:56:46;;;;;;;3.25;2.95;;;;;;;;;;5111786;27;20627;-64
2023/07/30 01:59:15;;;;;;;3.10;2.80;;;;;;;;;;5087408;28;20215;-62
2023/07/30 02:01:44;;;;;;;4.00;3.00;;;;;;;;;;5090052;28;20235;-63
2023/07/30 02:04:13;;;;;;;4.85;3.10;;;;;;;;;;5115081;27;20207;-64
2023/07/30 02:06:41;;;;;;;2.97;2.72;;;;;;;;;;5100172;28;20201;-64
2023/07/30 02:09:10;;;;;;;3.30;3.00;;;;;;;;;;5110097;27;20204;-63
2023/07/30 02:11:41;;;;;;;5.00;2.90;;;;;;;;;;5108468;27;20208;-62
2023/07/30 02:14:10;;;;;;;3.65;3.33;;;;;;;;;;5115340;27;20208;-64
2023/07/30 02:16:50;;;;;;;3.70;2.75;;;;;;;;;;5109226;27;20217;-64
2023/07/30 02:19:19;;;;;;;3.67;3.38;;;;;;;;;;5108368;27;20209;-64
2023/07/30 02:21:48;;;;;;;2.92;2.45;;;;;;;;;;5108130;28;20229;-63
2023/07/30 02:24:17;;;;;;;3.33;2.72;;;;;;;;;;5114272;27;20232;-63
2023/07/30 02:26:52;;;;;;;4.68;2.67;;;;;;;;;;5114199;27;20205;-64
2023/07/30 02:29:20;;;;;;;2.88;2.58;;;;;;;;;;5090893;28;20271;-62
2023/07/30 02:31:48;;;;;;;2.67;2.47;;;;;;;;;;5106607;28;20449;-65
2023/07/30 02:34:20;;;;;;;3.17;2.60;;;;;;;;;;5112218;28;20673;-64
2023/07/30 02:36:49;;;;;;;3.40;2.33;;;;;;;;;;5109319;28;20211;-64
2023/07/30 02:39:18;;;;;;;2.90;2.70;;;;;;;;;;5105216;28;20230;-64
2023/07/30 02:41:47;;;;;;;3.72;2.83;;;;;;;;;;5106660;28;20302;-63
2023/07/30 02:44:16;;;;;;;2.80;2.60;;;;;;;;;;5111652;28;20269;-63
2023/07/30 02:46:44;;;;;;;2.97;2.72;;;;;;;;;;5098399;28;20248;-63
2023/07/30 02:49:12;;;;;;;3.38;2.60;;;;;;;;;;5090939;28;20268;-63
2023/07/30 02:51:43;;;;;;;3.08;2.72;;;;;;;;;;5096260;28;20218;-64
2023/07/30 02:54:12;;;;;;;2.95;2.53;;;;;;;;;;5118837;28;20197;-63
2023/07/30 02:56:40;;;;;;;3.42;2.50;;;;;;;;;;5112846;28;20196;-62
2023/07/30 02:59:09;;;;;;;2.75;2.50;;;;;;;;;;5111340;28;20276;-64
2023/07/30 03:01:43;;;;;;;4.82;2.55;;;;;;;;;;5099731;28;20196;-62
2023/07/30 03:04:22;;;;;;;3.33;2.65;;;;;;;;;;5105684;28;20279;-63
2023/07/30 03:06:57;;;;;;;2.63;2.42;;;;;;;;;;5107430;28;20200;-66
2023/07/30 03:09:26;;;;;;;3.10;2.72;;;;;;;;;;5106453;28;20227;-67
2023/07/30 03:11:55;;;;;;;2.90;2.70;;;;;;;;;;5094677;28;20641;-68
2023/07/30 03:14:24;;;;;;;2.88;2.58;;;;;;;;;;5106630;28;20850;-61
2023/07/30 03:16:52;;;;;;;3.65;2.70;;;;;;;;;;5108232;28;20193;-63
2023/07/30 03:19:21;;;;;;;3.15;2.85;;;;;;;;;;5108365;28;21373;-64
2023/07/30 03:21:50;;;;;;;3.15;2.70;;;;;;;;;;5100478;28;20224;-63
2023/07/30 03:24:18;;;;;;;2.85;2.65;;;;;;;;;;5095832;27;20203;-63
2023/07/30 03:26:47;;;;;;;7.07;3.08;;;;;;;;;;5113258;28;20203;-63
2023/07/30 03:29:19;;;;;;;3.63;2.50;;;;;;;;;;5108686;28;20201;-63
2023/07/30 03:31:48;;;;;;;2.50;2.10;;;;;;;;;;5111662;27;20208;-62
2023/07/30 03:34:16;;;;;;;2.70;2.50;;;;;;;;;;5117405;28;20690;-63
2023/07/30 03:36:46;;;;;;;2.30;2.20;;;;;;;;;;5114762;27;20204;-63
2023/07/30 03:39:16;;;;;;;2.75;2.53;;;;;;;;;;5095243;28;20196;-63
2023/07/30 03:41:46;;;;;;;2.85;2.65;;;;;;;;;;5100994;28;20208;-64
2023/07/30 03:44:15;;;;;;;5.20;2.55;;;;;;;;;;5111983;27;20227;-63
2023/07/30 03:46:47;;;;;;;2.80;2.60;;;;;;;;;;5110016;27;20197;-62
2023/07/30 03:49:16;;;;;;;2.83;2.55;;;;;;;;;;5119252;27;20203;-63
2023/07/30 03:51:44;;;;;;;7.85;2.90;;;;;;;;;;5121530;27;20251;-63
2023/07/30 03:54:12;;;;;;;4.20;2.38;;;;;;;;;;5109910;28;20211;-63
2023/07/30 03:56:42;;;;;;;4.43;2.65;;;;;;;;;;5110508;27;20221;-63
2023/07/30 03:59:11;;;;;;;4.13;3.08;;;;;;;;;;5097462;28;20205;-68
2023/07/30 04:01:40;;;;;;;2.92;2.72;;;;;;;;;;5095117;28;20227;-63
2023/07/30 04:04:10;;;;;;;3.33;3.03;;;;;;;;;;5117143;27;20234;-63
2023/07/30 04:06:38;;;;;;;3.97;2.75;;;;;;;;;;5114344;27;20197;-64
2023/07/30 04:09:08;;;;;;;6.93;3.00;;;;;;;;;;5112256;27;20289;-64
2023/07/30 04:11:37;;;;;;;3.83;2.80;;;;;;;;;;5111181;28;20689;-63
2023/07/30 04:14:07;;;;;;;3.45;2.70;;;;;;;;;;5094916;28;20268;-62
2023/07/30 04:16:37;;;;;;;3.03;2.80;;;;;;;;;;5108487;27;20203;-62
2023/07/30 04:19:11;;;;;;;3.13;2.90;;;;;;;;;;5116804;27;20251;-63
2023/07/30 04:21:44;;;;;;;4.55;2.92;;;;;;;;;;5104822;28;20250;-63
2023/07/30 04:24:14;;;;;;;3.65;2.95;;;;;;;;;;5111595;28;20201;-64
2023/07/30 04:26:43;;;;;;;2.80;2.60;;;;;;;;;;5124474;27;20388;-63
2023/07/30 04:29:13;;;;;;;4.45;2.83;;;;;;;;;;5117559;28;20200;-63
2023/07/30 04:31:45;;;;;;;3.08;2.72;;;;;;;;;;5114938;28;20220;-63
2023/07/30 04:34:13;;;;;;;4.88;2.70;;;;;;;;;;5109029;28;20264;-64
2023/07/30 04:36:42;;;;;;;4.28;2.80;;;;;;;;;;5115672;27;20204;-63
2023/07/30 04:39:13;;;;;;;2.85;2.65;;;;;;;;;;5113680;27;20204;-63
2023/07/30 04:41:44;;;;;;;3.10;2.80;;;;;;;;;;5097568;28;20213;-63
2023/07/30 04:44:22;;;;;;;3.75;2.72;;;;;;;;;;5114314;27;20212;-63
2023/07/30 04:46:54;;;;;;;3.30;2.80;;;;;;;;;;5096617;28;20282;-63
2023/07/30 04:49:25;;;;;;;3.33;3.00;;;;;;;;;;5084439;28;20197;-63
2023/07/30 04:52:01;;;;;;;3.20;2.90;;;;;;;;;;5117932;27;20204;-63
2023/07/30 04:54:30;;;;;;;6.78;3.28;;;;;;;;;;5095346;28;20205;-64
2023/07/30 04:57:01;;;;;;;5.25;2.63;;;;;;;;;;5111262;27;20258;-62
2023/07/30 04:59:38;;;;;;;2.90;2.63;;;;;;;;;;5110214;28;20219;-63
2023/07/30 05:02:11;;;;;;;3.10;2.90;;;;;;;;;;5126536;22;20601;-64
2023/07/30 05:04:42;;;;;;;2.92;2.70;;;;;;;;;;5101285;28;20196;-63
2023/07/30 05:07:14;;;;;;;3.38;2.85;;;;;;;;;;5095437;28;20250;-62
2023/07/30 05:09:48;;;;;;;3.28;2.78;;;;;;;;;;5092966;28;20220;-63
2023/07/30 05:12:20;;;;;;;3.33;2.70;;;;;;;;;;5077259;28;20594;-66
2023/07/30 05:14:50;;;;;;;3.85;2.60;;;;;;;;;;5097233;28;20202;-63
2023/07/30 05:17:19;;;;;;;2.97;2.67;;;;;;;;;;5075399;28;20221;-63
2023/07/30 05:19:48;;;;;;;2.88;2.63;;;;;;;;;;5088600;28;20284;-64
2023/07/30 05:22:20;;;;;;;3.10;2.80;;;;;;;;;;5094053;28;20198;-63
2023/07/30 05:24:50;;;;;;;2.90;2.58;;;;;;;;;;5075267;28;20205;-62
2023/07/30 05:27:18;;;;;;;3.10;2.70;;;;;;;;;;5090699;28;20217;-62
2023/07/30 05:29:49;;;;;;;4.88;3.00;;;;;;;;;;5093876;28;20206;-64
2023/07/30 05:32:19;;;;;;;2.92;2.65;;;;;;;;;;5108930;28;20287;-63
2023/07/30 05:34:47;;;;;;;2.78;2.58;;;;;;;;;;5102746;28;20243;-62
2023/07/30 05:37:18;;;;;;;2.47;2.28;;;;;;;;;;5079265;28;20214;-66
2023/07/30 05:39:47;;;;;;;2.05;1.95;;;;;;;;;;5073677;28;20670;-64
2023/07/30 05:42:15;;;;;;;2.25;1.90;;;;;;;;;;5090943;28;20201;-63
2023/07/30 05:44:44;;;;;;;2.00;1.90;;;;;;;;;;5090122;28;20244;-64
2023/07/30 05:47:13;;;;;;;2.30;1.73;;;;;;;;;;5093313;28;20311;-63
2023/07/30 05:49:41;;;;;;;1.90;1.80;;;;;;;;;;5097251;28;20656;-64
2023/07/30 05:52:10;;;;;;;2.05;1.85;;;;;;;;;;5093785;28;20205;-63
2023/07/30 05:54:39;;;;;;;3.58;1.73;;;;;;;;;;5096573;28;20338;-64
2023/07/30 05:57:07;;;;;;;2.00;1.90;;;;;;;;;;5096539;28;20254;-63
2023/07/30 05:59:35;;;;;;;1.90;1.80;;;;;;;;;;5100605;28;20248;-65
2023/07/30 06:02:04;;;;;;;2.53;1.90;;;;;;;;;;5095981;28;20219;-64
2023/07/30 06:04:32;;;;;;;3.40;1.95;;;;;;;;;;5103559;28;20219;-63
2023/07/30 06:07:03;;;;;;;2.45;2.08;;;;;;;;;;5091826;28;20710;-63
2023/07/30 06:09:34;;;;;;;2.13;1.90;;;;;;;;;;5091214;28;20197;-63
2023/07/30 06:12:06;;;;;;;2.00;1.90;;;;;;;;;;5101428;28;20215;-64
2023/07/30 06:14:35;;;;;;;1.90;1.77;;;;;;;;;;5098867;28;20235;-64
2023/07/30 06:17:04;;;;;;;2.20;1.95;;;;;;;;;;5093218;28;20278;-64
2023/07/30 06:19:33;;;;;;;3.00;1.98;;;;;;;;;;5092270;28;20268;-65
2023/07/30 06:22:04;;;;;;;3.05;1.80;;;;;;;;;;5091425;28;20825;-63
2023/07/30 06:24:37;;;;;;;2.20;2.10;;;;;;;;;;5093471;28;20209;-64
2023/07/30 06:27:06;;;;;;;5.45;1.95;;;;;;;;;;5095500;28;20228;-64
2023/07/30 06:29:34;;;;;;;5.50;1.85;;;;;;;;;;5080432;28;20268;-62
2023/07/30 06:32:03;;;;;;;2.05;1.95;;;;;;;;;;5084556;28;20197;-64
2023/07/30 06:34:31;;;;;;;3.55;1.80;;;;;;;;;;5090035;28;20212;-62
2023/07/30 06:36:59;;;;;;;2.45;2.22;;;;;;;;;;5096400;28;20653;-63
2023/07/30 06:39:29;;;;;;;2.88;2.10;;;;;;;;;;5083323;28;20201;-64
2023/07/30 06:41:57;;;;;;;2.35;2.15;;;;;;;;;;5091176;28;20208;-64
2023/07/30 06:44:31;;;;;;;2.90;2.05;;;;;;;;;;5096461;28;20256;-63
2023/07/30 06:47:03;;;;;;;2.47;2.10;;;;;;;;;;5098126;28;20220;-68
2023/07/30 06:49:34;;;;;;;2.15;1.95;;;;;;;;;;5097030;28;20204;-64
2023/07/30 06:52:03;;;;;;;2.08;1.98;;;;;;;;;;5075429;28;20197;-64
2023/07/30 06:54:33;;;;;;;2.05;1.95;;;;;;;;;;5080257;28;20202;-63
2023/07/30 06:57:05;;;;;;;3.00;2.28;;;;;;;;;;5097107;28;20225;-63
2023/07/30 06:59:35;;;;;;;2.30;2.10;;;;;;;;;;5078597;28;20208;-64
2023/07/30 07:02:05;;;;;;;2.72;2.08;;;;;;;;;;5100484;28;20207;-64
2023/07/30 07:04:34;;;;;;;2.63;2.10;;;;;;;;;;5096457;28;20493;-63
2023/07/30 07:07:03;;;;;;;2.35;2.15;;;;;;;;;;5096388;28;20248;-62
2023/07/30 07:09:35;;;;;;;3.60;2.10;;;;;;;;;;5100952;28;20217;-63
2023/07/30 07:12:04;;;;;;;2.70;2.00;;;;;;;;;;5105074;28;20211;-64
2023/07/30 07:14:33;;;;;;;3.92;2.10;;;;;;;;;;5093467;28;20201;-65
2023/07/30 07:17:02;;;;;;;2.20;2.10;;;;;;;;;;5087197;28;20231;-64
2023/07/30 07:19:36;;;;;;;3.53;2.08;;;;;;;;;;5079304;28;20615;-65
2023/07/30 07:22:05;;;;;;;1.83;1.73;;;;;;;;;;5073735;28;20205;-63
2023/07/30 07:24:34;;;;;;;2.55;2.28;;;;;;;;;;5100281;28;20225;-63
2023/07/30 07:27:02;;;;;;;1.98;1.83;;;;;;;;;;5101343;28;20243;-64
2023/07/30 07:29:31;;;;;;;3.33;1.92;;;;;;;;;;5098816;28;20295;-63
2023/07/30 07:32:01;;;;;;;1.98;1.88;;;;;;;;;;5097079;28;20196;-64
2023/07/30 07:34:30;;;;;;;2.20;2.10;;;;;;;;;;5079015;28;20198;-64
2023/07/30 07:36:59;;;;;;;2.40;1.92;;;;;;;;;;5096914;28;20204;-63
2023/07/30 07:39:29;;;;;;;2.05;1.75;;;;;;;;;;5093028;28;20227;-64
2023/07/30 07:41:58;;;;;;;1.90;1.80;;;;;;;;;;5098482;28;20670;-63
2023/07/30 07:44:30;;;;;;;5.93;2.10;;;;;;;;;;5085276;28;20257;-63
2023/07/30 07:47:00;;;;;;;4.00;1.70;;;;;;;;;;5097905;28;20229;-64
2023/07/30 07:49:28;;;;;;;2.40;2.00;;;;;;;;;;5078306;28;20238;-63
2023/07/30 07:52:06;;;;;;;2.10;2.00;;;;;;;;;;5094392;28;20205;-64
2023/07/30 07:54:36;;;;;;;2.08;1.98;;;;;;;;;;5094849;28;20239;-63
2023/07/30 07:57:12;;;;;;;2.10;2.00;;;;;;;;;;5096787;28;20239;-64
2023/07/30 07:59:45;;;;;;;2.65;1.80;;;;;;;;;;5100202;28;20211;-65
2023/07/30 08:02:14;;;;;;;3.72;1.80;;;;;;;;;;5092459;28;20240;-65
2023/07/30 08:04:43;;;;;;;8.02;2.10;;;;;;;;;;5093890;28;20260;-68
2023/07/30 08:07:15;;;;;;;4.10;1.60;;;;;;;;;;5093507;28;20703;-65
2023/07/30 08:09:44;;;;;;;4.43;1.80;;;;;;;;;;5058787;28;20204;-64
2023/07/30 08:12:14;;;;;;;6.20;1.95;;;;;;;;;;5091586;28;20212;-62
2023/07/30 08:14:44;;;;;;;1.67;1.52;;;;;;;;;;5078500;28;20205;-64
2023/07/30 08:17:16;;;;;;;6.05;1.67;;;;;;;;;;5091805;28;20224;-66
2023/07/30 08:19:45;;;;;;;1.92;1.80;;;;;;;;;;5092200;28;20290;-67
2023/07/30 08:22:14;;;;;;;1.60;1.50;;;;;;;;;;5093703;28;20197;-65
2023/07/30 08:24:43;;;;;;;1.70;1.60;;;;;;;;;;5079215;28;20232;-63
2023/07/30 08:27:11;;;;;;;3.83;1.58;;;;;;;;;;5095807;28;20224;-65
2023/07/30 08:29:40;;;;;;;2.30;2.10;;;;;;;;;;5097286;28;20204;-65
2023/07/30 08:32:10;;;;;;;1.70;1.58;;;;;;;;;;5091858;28;20271;-66
2023/07/30 08:34:40;;;;;;;2.05;1.95;;;;;;;;;;5094042;28;20201;-62
2023/07/30 08:37:12;;;;;;;2.15;1.95;;;;;;;;;;5099853;28;20240;-65
2023/07/30 08:39:45;;;;;;;3.53;1.80;;;;;;;;;;5081461;28;20201;-65
2023/07/30 08:42:17;;;;;;;1.95;1.85;;;;;;;;;;5098236;28;20211;-66
2023/07/30 08:44:45;;;;;;;2.20;2.00;;;;;;;;;;5090654;28;20789;-64
2023/07/30 08:47:16;;;;;;;1.88;1.77;;;;;;;;;;5077517;28;20225;-64
2023/07/30 08:49:44;;;;;;;1.77;1.63;;;;;;;;;;5092125;28;20213;-67
2023/07/30 08:52:13;;;;;;;3.40;2.00;;;;;;;;;;5078123;28;20220;-64
2023/07/30 08:54:43;;;;;;;4.13;1.85;;;;;;;;;;5096137;28;20251;-64
2023/07/30 08:57:13;;;;;;;2.25;1.67;;;;;;;;;;5094521;28;20251;-65
2023/07/30 08:59:43;;;;;;;2.58;1.90;;;;;;;;;;5091785;28;20220;-63
2023/07/30 09:02:18;;;;;;;2.05;1.67;;;;;;;;;;5079873;28;20225;-64
2023/07/30 09:04:48;;;;;;;3.20;2.08;;;;;;;;;;5094538;28;20292;-65
2023/07/30 09:07:19;;;;;;;2.15;1.95;;;;;;;;;;5088233;28;20225;-64
2023/07/30 09:09:48;;;;;;;2.67;2.45;;;;;;;;;;5091341;28;20217;-64
2023/07/30 09:12:17;;;;;;;2.95;2.25;;;;;;;;;;5076975;28;20212;-65
2023/07/30 09:14:51;;;;;;;3.30;1.80;;;;;;;;;;5094740;28;20197;-63
2023/07/30 09:17:21;;;;;;;2.45;2.10;;;;;;;;;;5092913;28;20228;-68
2023/07/30 09:19:51;;;;;;;3.35;2.00;;;;;;;;;;5087334;28;20264;-65
2023/07/30 09:22:29;;;;;;;2.30;1.90;;;;;;;;;;5097553;28;20201;-65
2023/07/30 09:24:58;;;;;;;2.13;1.90;;;;;;;;;;5075362;28;20224;-62
2023/07/30 09:27:26;;;;;;;2.70;2.20;;;;;;;;;;5094142;28;20251;-63
2023/07/30 09:29:58;;;;;;;1.95;1.70;;;;;;;;;;5095201;28;20240;-63
2023/07/30 09:32:28;;;;;;;1.40;1.30;;;;;;;;;;5089599;28;20215;-64
2023/07/30 09:35:06;;;;;;;1.90;1.80;;;;;;;;;;5077074;28;20263;-63
2023/07/30 09:37:40;;;;;;;2.17;1.80;;;;;;;;;;5085931;28;20228;-64
2023/07/30 09:40:09;;;;;;;2.40;1.50;;;;;;;;;;5078213;28;20205;-63
2023/07/30 09:42:39;;;;;;;2.67;1.60;;;;;;;;;;5071399;28;20312;-64
2023/07/30 09:45:17;;;;;;;2.92;1.85;;;;;;;;;;5089237;28;20284;-63
2023/07/30 09:47:49;;;;;;;1.77;1.67;;;;;;;;;;5072247;28;20225;-65
2023/07/30 09:50:19;;;;;;;2.65;1.90;;;;;;;;;;5089065;28;20671;-65
2023/07/30 09:52:47;;;;;;;1.98;1.77;;;;;;;;;;5085375;28;20206;-63
2023/07/30 09:55:20;;;;;;;2.17;1.80;;;;;;;;;;5076239;28;20238;-65
2023/07/30 09:57:49;;;;;;;3.78;1.95;;;;;;;;;;5088004;28;20247;-64
2023/07/30 10:00:19;;;;;;;1.90;1.77;;;;;;;;;;5084379;28;20212;-63
2023/07/30 10:02:51;;;;;;;1.80;1.70;;;;;;;;;;5086386;28;20217;-63
2023/07/30 10:05:21;;;;;;;2.40;2.20;;;;;;;;;;5090762;28;20233;-64
2023/07/30 10:08:11;;;;;;;2.22;1.58;;;;;;;;;;5092007;28;20246;-64
2023/07/30 10:10:39;;;;;;;2.28;1.55;;;;;;;;;;5090697;28;20205;-64
2023/07/30 10:13:11;;;;;;;2.42;1.73;;;;;;;;;;5093190;28;20272;-65
2023/07/30 10:15:40;;;;;;;3.22;1.80;;;;;;;;;;5075967;28;20207;-65
2023/07/30 10:18:09;;;;;;;4.10;2.13;;;;;;;;;;5081496;28;20232;-63
2023/07/30 10:20:38;;;;;;;1.70;1.60;;;;;;;;;;5097900;28;20225;-64
2023/07/30 10:23:06;;;;;;;1.60;1.50;;;;;;;;;;5094848;28;20205;-65
2023/07/30 10:25:48;;;;;;;1.73;1.60;;;;;;;;;;5090893;28;20253;-67
2023/07/30 10:28:38;;;;;;;2.95;2.72;;;;;;;;;;5088380;28;20251;-63
2023/07/30 10:31:13;;;;;;;2.58;2.38;;;;;;;;;;5085499;28;20213;-66
2023/07/30 10:33:47;;;;;;;2.95;2.65;;;;;;;;;;5095974;22;20264;-64
2023/07/30 10:36:19;;;;;;;1.90;1.70;;;;;;;;;;5085668;28;20228;-64
2023/07/30 10:38:48;;;;;;;5.05;3.10;;;;;;;;;;5086835;28;20226;-64
2023/07/30 10:41:17;;;;;;;2.88;1.60;;;;;;;;;;5090503;28;20462;-63
2023/07/30 10:43:48;;;;;;;1.80;1.70;;;;;;;;;;5086617;28;20220;-63
2023/07/30 10:46:20;;;;;;;2.85;1.80;;;;;;;;;;5080160;28;20208;-66
2023/07/30 10:48:49;;;;;;;4.60;2.00;;;;;;;;;;5088451;28;20221;-65
2023/07/30 10:51:19;;;;;;;2.47;1.83;;;;;;;;;;5080452;28;20261;-63
2023/07/30 10:53:49;;;;;;;1.90;1.80;;;;;;;;;;5083265;28;20198;-65
2023/07/30 10:56:18;;;;;;;1.90;1.60;;;;;;;;;;5081340;28;20201;-64
2023/07/30 10:58:50;;;;;;;1.90;1.80;;;;;;;;;;5088569;28;20221;-69
2023/07/30 11:01:18;;;;;;;1.83;1.73;;;;;;;;;;5087751;28;20229;-64
2023/07/30 11:03:51;;;;;;;2.22;1.55;;;;;;;;;;5092194;28;20636;-64
2023/07/30 11:06:24;;;;;;;1.60;1.50;;;;;;;;;;5089528;28;20213;-63
2023/07/30 11:08:53;;;;;;;2.30;1.50;;;;;;;;;;5096465;28;20218;-67
2023/07/30 11:11:25;;;;;;;1.85;1.75;;;;;;;;;;5083330;28;20197;-65
2023/07/30 11:13:54;;;;;;;2.85;1.60;;;;;;;;;;5085493;28;20720;-64
2023/07/30 11:16:23;;;;;;;1.70;1.60;;;;;;;;;;5087896;28;20263;-64
2023/07/30 11:18:52;;;;;;;1.70;1.60;;;;;;;;;;5089345;28;20260;-63
2023/07/30 11:21:30;;;;;;;1.92;1.83;;;;;;;;;;5087627;28;20212;-68
2023/07/30 11:23:59;;;;;;;2.30;1.73;;;;;;;;;;5087948;28;20205;-64
2023/07/30 11:26:27;;;;;;;3.03;2.70;;;;;;;;;;5072345;28;20205;-63
2023/07/30 11:28:56;;;;;;;2.33;2.13;;;;;;;;;;5085707;28;20214;-64
2023/07/30 11:31:27;;;;;;;1.98;1.88;;;;;;;;;;5080078;28;20480;-63
2023/07/30 11:33:55;;;;;;;2.20;1.77;;;;;;;;;;5080976;28;20209;-65
2023/07/30 11:36:25;;;;;;;5.32;2.08;;;;;;;;;;5073106;28;20208;-64
2023/07/30 11:38:54;;;;;;;7.20;2.50;;;;;;;;;;5095626;28;20209;-64
2023/07/30 11:41:25;;;;;;;3.83;2.60;;;;;;;;;;5078850;28;20229;-64
2023/07/30 11:43:55;;;;;;;2.30;2.15;;;;;;;;;;5084551;28;20205;-65
2023/07/30 11:46:23;;;;;;;3.22;2.53;;;;;;;;;;5074828;28;20209;-65
2023/07/30 11:48:54;;;;;;;3.25;1.92;;;;;;;;;;5082811;28;20252;-65
2023/07/30 11:51:26;;;;;;;1.70;1.60;;;;;;;;;;5087817;28;20198;-65
2023/07/30 11:53:57;;;;;;;2.58;1.83;;;;;;;;;;5081323;28;20335;-65
2023/07/30 11:56:27;;;;;;;2.15;2.05;;;;;;;;;;5092496;28;20292;-65
2023/07/30 11:59:00;;;;;;;3.33;2.13;;;;;;;;;;5091904;28;20691;-68
2023/07/30 12:01:34;;;;;;;1.88;1.70;;;;;;;;;;5073308;28;20211;-66
2023/07/30 12:04:04;;;;;;;1.92;1.83;;;;;;;;;;5093902;28;20200;-64
2023/07/30 12:06:43;;;;;;;1.77;1.67;;;;;;;;;;5083207;28;20197;-64
2023/07/30 12:09:21;;;;;;;2.00;1.80;;;;;;;;;;5094712;28;20208;-63
2023/07/30 12:11:50;;;;;;;1.85;1.75;;;;;;;;;;5098632;28;20340;-65
2023/07/30 12:14:20;;;;;;;1.85;1.75;;;;;;;;;;5093344;28;20738;-65
2023/07/30 12:16:49;;;;;;;2.97;1.92;;;;;;;;;;5076541;28;20201;-64
2023/07/30 12:19:18;;;;;;;3.03;1.77;;;;;;;;;;5086440;28;20205;-64
2023/07/30 12:21:47;;;;;;;2.10;1.98;;;;;;;;;;5087882;28;20237;-65
2023/07/30 12:24:22;;;;;;;1.88;1.77;;;;;;;;;;5091264;28;20221;-65
2023/07/30 12:26:54;;;;;;;2.60;1.80;;;;;;;;;;5070068;28;20201;-66
2023/07/30 12:29:23;;;;;;;5.47;4.00;;;;;;;;;;5093037;28;20209;-64
2023/07/30 12:31:53;;;;;;;2.03;1.83;;;;;;;;;;5075158;28;21392;-65
2023/07/30 12:34:27;;;;;;;2.50;2.30;;;;;;;;;;5070965;28;20200;-64
2023/07/30 12:36:56;;;;;;;2.50;1.90;;;;;;;;;;5086886;28;20206;-65
2023/07/30 12:39:27;;;;;;;3.28;1.92;;;;;;;;;;5087244;28;20212;-66
2023/07/30 12:41:56;;;;;;;1.90;1.80;;;;;;;;;;5084906;28;20201;-64
2023/07/30 12:44:24;;;;;;;2.00;1.90;;;;;;;;;;5076633;28;20711;-65
2023/07/30 12:46:53;;;;;;;2.15;1.77;;;;;;;;;;5097726;28;20201;-64
2023/07/30 12:49:22;;;;;;;3.88;1.98;;;;;;;;;;5097217;28;20205;-65
2023/07/30 12:51:51;;;;;;;2.63;2.20;;;;;;;;;;5090699;28;20204;-62
2023/07/30 12:54:20;;;;;;;2.10;1.92;;;;;;;;;;5093439;28;20704;-64
2023/07/30 12:56:48;;;;;;;2.95;1.90;;;;;;;;;;5089787;28;20284;-64
2023/07/30 12:59:20;;;;;;;3.40;2.08;;;;;;;;;;5077509;28;20197;-66
2023/07/30 13:01:49;;;;;;;3.70;1.88;;;;;;;;;;5067067;28;20296;-68
2023/07/30 13:04:18;;;;;;;3.38;1.80;;;;;;;;;;5088739;28;20217;-66
2023/07/30 13:06:47;;;;;;;2.25;1.88;;;;;;;;;;5090412;28;20205;-65
2023/07/30 13:09:16;;;;;;;2.30;1.70;;;;;;;;;;5092202;28;20204;-64
2023/07/30 13:11:46;;;;;;;1.77;1.67;;;;;;;;;;5090901;28;20204;-63
2023/07/30 13:14:15;;;;;;;1.70;1.55;;;;;;;;;;5079129;28;20228;-65
2023/07/30 13:16:44;;;;;;;1.90;1.70;;;;;;;;;;5097202;28;20198;-66
2023/07/30 13:19:14;;;;;;;2.65;1.92;;;;;;;;;;5086262;28;20259;-65
2023/07/30 13:21:43;;;;;;;1.90;1.70;;;;;;;;;;5098921;28;20200;-64
2023/07/30 13:24:12;;;;;;;1.95;1.77;;;;;;;;;;5091032;28;20205;-63
2023/07/30 13:26:42;;;;;;;2.30;2.00;;;;;;;;;;5099760;28;20264;-65
2023/07/30 13:29:13;;;;;;;1.95;1.85;;;;;;;;;;5094898;28;20186;-63
2023/07/30 13:31:42;;;;;;;2.13;1.92;;;;;;;;;;5102125;28;20205;-67
2023/07/30 13:34:11;;;;;;;2.90;1.77;;;;;;;;;;5104480;28;20206;-64
2023/07/30 13:36:40;;;;;;;2.53;2.30;;;;;;;;;;5099027;28;20205;-66
2023/07/30 13:39:09;;;;;;;2.13;1.95;;;;;;;;;;5099082;28;20203;-71
2023/07/30 13:41:39;;;;;;;2.80;2.13;;;;;;;;;;5098679;28;20202;-65
2023/07/30 13:44:10;;;;;;;2.83;1.80;;;;;;;;;;5086796;28;20186;-64
2023/07/30 13:46:41;;;;;;;2.05;1.80;;;;;;;;;;5091680;28;20237;-65
2023/07/30 13:49:12;;;;;;;2.70;1.80;;;;;;;;;;5102452;28;20204;-66
2023/07/30 13:51:44;;;;;;;1.83;1.73;;;;;;;;;;5086762;28;20209;-62
2023/07/30 13:54:20;;;;;;;2.25;1.52;;;;;;;;;;5089166;28;20756;-64
2023/07/30 13:56:49;;;;;;;3.63;2.05;;;;;;;;;;5085049;28;20198;-63
2023/07/30 13:59:18;;;;;;;2.63;1.85;;;;;;;;;;5077537;28;20277;-64
2023/07/30 14:01:47;;;;;;;2.22;2.00;;;;;;;;;;5080087;28;20217;-64
2023/07/30 14:04:16;;;;;;;2.10;2.00;;;;;;;;;;5080951;28;20228;-65
2023/07/30 14:06:45;;;;;;;2.03;1.73;;;;;;;;;;5092865;28;20209;-63
2023/07/30 14:09:13;;;;;;;2.60;2.40;;;;;;;;;;5085276;28;20213;-64
2023/07/30 14:11:46;;;;;;;2.58;2.28;;;;;;;;;;5097649;28;20236;-64
2023/07/30 14:14:14;;;;;;;2.03;1.92;;;;;;;;;;5080901;28;20215;-64
2023/07/30 14:16:43;;;;;;;4.40;2.22;;;;;;;;;;5100898;28;20209;-68
2023/07/30 14:19:15;;;;;;;3.85;2.13;;;;;;;;;;5084817;28;20208;-65
2023/07/30 14:21:44;;;;;;;3.42;2.13;;;;;;;;;;5092742;28;20704;-70
2023/07/30 14:24:13;;;;;;;3.72;2.10;;;;;;;;;;5081202;28;20208;-64
2023/07/30 14:26:42;;;;;;;3.25;2.25;;;;;;;;;;5090352;28;20226;-65
2023/07/30 14:29:11;;;;;;;2.92;2.10;;;;;;;;;;5095742;28;20207;-68
2023/07/30 14:31:40;;;;;;;2.33;2.00;;;;;;;;;;5087469;28;20205;-65
2023/07/30 14:34:10;;;;;;;3.40;2.28;;;;;;;;;;5090354;28;20232;-65
2023/07/30 14:36:39;;;;;;;4.40;4.00;;;;;;;;;;5075944;28;20200;-63
2023/07/30 14:39:09;;;;;;;3.13;2.60;;;;;;;;;;5098221;28;20205;-65
2023/07/30 14:41:39;;;;;;;3.20;2.80;;;;;;;;;;5091641;28;20233;-65
2023/07/30 14:44:09;;;;;;;3.60;2.80;;;;;;;;;;5099007;28;20204;-63
2023/07/30 14:46:41;;;;;;;4.72;3.78;;;;;;;;;;5101569;28;20713;-64
2023/07/30 14:49:13;;;;;;;4.85;2.60;;;;;;;;;;5093788;28;20719;-63
2023/07/30 14:51:42;;;;;;;2.63;2.42;;;;;;;;;;5095165;28;20216;-68
2023/07/30 14:54:17;;;;;;;4.28;2.88;;;;;;;;;;5090465;28;20246;-63
2023/07/30 14:56:48;;;;;;;5.50;2.10;;;;;;;;;;5091462;28;20467;-63
2023/07/30 14:59:18;;;;;;;3.20;2.30;;;;;;;;;;5088871;28;20296;-62
2023/07/30 15:01:48;;;;;;;4.93;3.15;;;;;;;;;;5091998;28;20197;-65